createdAt,value
2022-08-17T00:00:33.294Z,99503.66
2022-08-17T00:03:02.855Z,99497.13
2022-08-17T00:05:32.596Z,99492.78
2022-08-17T00:08:00.135Z,99494.88
2022-08-17T00:10:27.961Z,99491.59
2022-08-17T00:12:57.513Z,99491.25
2022-08-17T00:15:26.377Z,99476.72
2022-08-17T00:17:56.592Z,99484.22
2022-08-17T00:20:30.589Z,99477.44
2022-08-17T00:23:10.637Z,99487.84
2022-08-17T00:25:38.487Z,99478.94
2022-08-17T00:28:06.384Z,99479.88
2022-08-17T00:30:52.739Z,99477.44
2022-08-17T00:33:23.770Z,99481.72
2022-08-17T00:35:51.962Z,99483.94
2022-08-17T00:38:19.907Z,99487.34
2022-08-17T00:40:50.375Z,99486.41
2022-08-17T00:43:22.552Z,99479.84
2022-08-17T00:45:51.494Z,99477.03
2022-08-17T00:48:29.875Z,99481.84
2022-08-17T00:51:02.806Z,99481.13
2022-08-17T00:53:32.958Z,99477.78
2022-08-17T00:56:03.116Z,99471.41
2022-08-17T00:58:36.248Z,99468.41
2022-08-17T01:01:06.731Z,99466.78
2022-08-17T01:03:34.530Z,99472.25
2022-08-17T01:06:04.384Z,99475.09
2022-08-17T01:08:33.408Z,99477.44
2022-08-17T01:11:04.036Z,99472.88
2022-08-17T01:13:39.750Z,99475.22
2022-08-17T01:16:15.851Z,99467.63
2022-08-17T01:18:44.155Z,99470.88
2022-08-17T01:21:15.607Z,99477.91
2022-08-17T01:23:44.540Z,99479.22
2022-08-17T01:26:12.103Z,99473.34
2022-08-17T01:28:54.289Z,99478.13
2022-08-17T01:31:25.459Z,99475.44
2022-08-17T01:33:53.441Z,99479.91
2022-08-17T01:36:21.366Z,99480.72
2022-08-17T01:38:50.406Z,99479.22
2022-08-17T01:41:18.392Z,99483.41
2022-08-17T01:43:49.300Z,99478.50
2022-08-17T01:46:20.975Z,99475.94
2022-08-17T01:48:48.825Z,99479.31
2022-08-17T01:51:16.986Z,99479.44
2022-08-17T01:53:48.928Z,99483.78
2022-08-17T01:56:20.904Z,99482.13
2022-08-17T01:58:48.641Z,99477.78
2022-08-17T02:01:17.823Z,99476.25
2022-08-17T02:03:56.256Z,99486.19
2022-08-17T02:06:31.237Z,99489.31
2022-08-17T02:09:16.605Z,99486.28
2022-08-17T02:11:46.431Z,99477.41
2022-08-17T02:14:14.577Z,99473.19
2022-08-17T02:16:42.560Z,99466.19
2022-08-17T02:19:15.531Z,99468.97
2022-08-17T02:21:45.218Z,99468.84
2022-08-17T02:24:16.959Z,99466.16
2022-08-17T02:26:46.806Z,99470.69
2022-08-17T02:29:15.070Z,99468.94
2022-08-17T02:31:42.906Z,99471.03
2022-08-17T02:34:10.841Z,99468.34
2022-08-17T02:36:38.868Z,99467.75
2022-08-17T02:39:09.418Z,99466.09
2022-08-17T02:41:37.350Z,99466.59
2022-08-17T02:44:06.741Z,99464.13
2022-08-17T02:46:34.333Z,99469.25
2022-08-17T02:49:02.227Z,99467.72
2022-08-17T02:51:29.862Z,99472.72
2022-08-17T02:54:40.445Z,99466.66
2022-08-17T02:56:45.238Z,99464.78
2022-08-17T02:59:14.165Z,99450.38
2022-08-17T03:01:41.702Z,99459.88
2022-08-17T03:04:09.482Z,99460.63
2022-08-17T03:06:37.348Z,99458.53
2022-08-17T03:09:05.231Z,99452.09
2022-08-17T03:11:32.785Z,99460.22
2022-08-17T03:14:00.318Z,99462.09
2022-08-17T03:16:29.186Z,99452.09
2022-08-17T03:18:56.703Z,99457.38
2022-08-17T03:21:24.407Z,99455.66
2022-08-17T03:23:54.379Z,99451.09
2022-08-17T03:26:22.269Z,99454.94
2022-08-17T03:28:49.846Z,99449.31
2022-08-17T03:31:18.286Z,99446.88
2022-08-17T03:33:47.223Z,99454.94
2022-08-17T03:36:14.895Z,99452.19
2022-08-17T03:38:42.431Z,99459.53
2022-08-17T03:41:13.804Z,99448.44
2022-08-17T03:43:41.339Z,99445.53
2022-08-17T03:46:28.310Z,99444.69
2022-08-17T03:49:20.771Z,99455.56
2022-08-17T03:52:05.873Z,99453.59
2022-08-17T03:54:51.221Z,99458.31
2022-08-17T03:57:19.017Z,99458.13
2022-08-17T03:59:46.619Z,99458.97
2022-08-17T04:02:18.959Z,99459.91
2022-08-17T04:04:50.551Z,99455.63
2022-08-17T04:07:18.378Z,99451.72
2022-08-17T04:09:45.920Z,99459.09
2022-08-17T04:12:15.733Z,99448.59
2022-08-17T04:14:53.030Z,99456.94
2022-08-17T04:17:24.044Z,99460.44
2022-08-17T04:19:53.287Z,99468.50
2022-08-17T04:22:30.099Z,99474.00
2022-08-17T04:25:03.226Z,99471.53
2022-08-17T04:27:30.761Z,99471.88
2022-08-17T04:29:58.422Z,99477.06
2022-08-17T04:33:03.902Z,99476.59
2022-08-17T04:35:19.063Z,99476.91
2022-08-17T04:37:47.374Z,99475.63
2022-08-17T04:40:32.758Z,99481.69
2022-08-17T04:43:04.959Z,99488.06
2022-08-17T04:45:32.798Z,99487.94
2022-08-17T04:48:01.756Z,99494.25
2022-08-17T04:50:30.901Z,99478.78
2022-08-17T04:52:58.696Z,99484.03
2022-08-17T04:55:26.695Z,99487.34
2022-08-17T04:57:54.191Z,99489.97
2022-08-17T05:00:21.955Z,99493.94
2022-08-17T05:02:51.152Z,99500.41
2022-08-17T05:05:20.815Z,99496.41
2022-08-17T05:07:52.281Z,99500.16
2022-08-17T05:10:19.985Z,99505.31
2022-08-17T05:12:47.593Z,99502.34
2022-08-17T05:15:16.211Z,99515.31
2022-08-17T05:17:43.825Z,99510.78
2022-08-17T05:20:12.342Z,99515.66
2022-08-17T05:22:51.106Z,99505.88
2022-08-17T05:25:23.936Z,99501.81
2022-08-17T05:27:54.085Z,99507.16
2022-08-17T05:30:22.193Z,99503.91
2022-08-17T05:32:54.492Z,99507.84
2022-08-17T05:35:22.951Z,99507.41
2022-08-17T05:37:52.214Z,99510.09
2022-08-17T05:40:21.319Z,99507.72
2022-08-17T05:42:49.031Z,99514.41
2022-08-17T05:45:28.096Z,99513.00
2022-08-17T05:48:07.196Z,99521.28
2022-08-17T05:50:39.629Z,99513.38
2022-08-17T05:53:11.934Z,99514.19
2022-08-17T05:55:47.108Z,99524.13
2022-08-17T05:58:21.190Z,99522.38
2022-08-17T06:00:52.991Z,99524.78
2022-08-17T06:03:30.515Z,99523.22
2022-08-17T06:06:07.286Z,99521.91
2022-08-17T06:08:43.155Z,99524.22
2022-08-17T06:11:17.036Z,99518.38
2022-08-17T06:14:06.288Z,99520.03
2022-08-17T06:16:37.244Z,99518.31
2022-08-17T06:19:07.529Z,99513.75
2022-08-17T06:21:37.275Z,99520.47
2022-08-17T06:24:09.559Z,99518.09
2022-08-17T06:26:43.036Z,99509.59
2022-08-17T06:29:23.467Z,99506.72
2022-08-17T06:31:54.973Z,99508.16
2022-08-17T06:34:22.747Z,99508.53
2022-08-17T06:36:56.293Z,99509.09
2022-08-17T06:39:33.861Z,99507.19
2022-08-17T06:42:09.351Z,99505.00
2022-08-17T06:45:02.502Z,99507.97
2022-08-17T06:47:34.118Z,99501.41
2022-08-17T06:50:08.711Z,99505.72
2022-08-17T06:52:46.362Z,99502.94
2022-08-17T06:55:21.209Z,99502.66
2022-08-17T06:57:52.829Z,99496.91
2022-08-17T07:00:23.157Z,99504.38
2022-08-17T07:02:55.217Z,99495.91
2022-08-17T07:05:27.070Z,99505.22
2022-08-17T07:08:03.603Z,99500.69
2022-08-17T07:10:37.705Z,99494.78
2022-08-17T07:13:15.926Z,99494.72
2022-08-17T07:15:43.982Z,99502.16
2022-08-17T07:18:11.787Z,99499.19
2022-08-17T07:20:42.698Z,99495.78
2022-08-17T07:23:19.537Z,99497.19
2022-08-17T07:25:48.562Z,99501.06
2022-08-17T07:28:22.841Z,99492.47
2022-08-17T07:30:53.287Z,99498.56
2022-08-17T07:33:23.725Z,99505.91
2022-08-17T07:35:52.034Z,99504.56
2022-08-17T07:38:24.678Z,99513.66
2022-08-17T07:41:04.584Z,99499.25
2022-08-17T07:43:33.811Z,99506.06
2022-08-17T07:46:30.323Z,99502.00
2022-08-17T07:48:59.478Z,99504.25
2022-08-17T07:51:30.134Z,99508.56
2022-08-17T07:54:13.499Z,99512.69
2022-08-17T07:56:46.246Z,99506.88
2022-08-17T07:59:17.987Z,99501.06
2022-08-17T08:02:05.421Z,99505.44
2022-08-17T08:04:59.212Z,99514.84
2022-08-17T08:07:26.710Z,99512.84
2022-08-17T08:10:02.412Z,99504.00
2022-08-17T08:12:34.345Z,99511.72
2022-08-17T08:15:06.588Z,99507.41
2022-08-17T08:17:37.378Z,99506.75
2022-08-17T08:20:51.106Z,99515.50
2022-08-17T08:23:09.669Z,99514.97
2022-08-17T08:25:45.572Z,99519.97
2022-08-17T08:28:22.897Z,99508.69
2022-08-17T08:30:55.330Z,99511.25
2022-08-17T08:33:35.726Z,99514.69
2022-08-17T08:36:10.760Z,99520.03
2022-08-17T08:38:47.260Z,99520.00
2022-08-17T08:41:26.137Z,99514.31
2022-08-17T08:44:01.806Z,99518.59
2022-08-17T08:46:32.232Z,99515.75
2022-08-17T08:50:02.737Z,99514.47
2022-08-17T08:52:41.498Z,99508.09
2022-08-17T08:55:12.940Z,99511.41
2022-08-17T08:57:45.372Z,99506.31
2022-08-17T09:00:18.959Z,99515.97
2022-08-17T09:03:50.890Z,99510.50
2022-08-17T09:06:38.788Z,99516.41
2022-08-17T09:09:17.270Z,99519.56
2022-08-17T09:12:01.901Z,99520.94
2022-08-17T09:14:46.662Z,99515.88
2022-08-17T09:17:19.117Z,99517.81
2022-08-17T09:19:49.807Z,99518.19
2022-08-17T09:22:31.603Z,99515.19
2022-08-17T09:25:06.792Z,99507.59
2022-08-17T09:27:39.330Z,99512.81
2022-08-17T09:30:10.739Z,99502.88
2022-08-17T09:32:41.673Z,99499.06
2022-08-17T09:35:13.890Z,99491.00
2022-08-17T09:37:51.456Z,99500.13
2022-08-17T09:40:22.549Z,99493.53
2022-08-17T09:42:53.758Z,99499.63
2022-08-17T09:45:27.989Z,99492.59
2022-08-17T09:48:00.939Z,99495.97
2022-08-17T09:51:03.288Z,99493.94
2022-08-17T09:53:19.906Z,99490.50
2022-08-17T09:56:12.235Z,99481.66
2022-08-17T09:58:51.475Z,99489.91
2022-08-17T10:01:29.017Z,99489.41
2022-08-17T10:04:12.091Z,99490.38
2022-08-17T10:06:49.960Z,99484.72
2022-08-17T10:10:58.757Z,99479.28
2022-08-17T10:13:35.328Z,99480.44
2022-08-17T10:16:08.693Z,99480.28
2022-08-17T10:18:46.787Z,99468.19
2022-08-17T10:21:33.021Z,99477.38
2022-08-17T10:24:25.019Z,99468.00
2022-08-17T10:26:56.286Z,99466.00
2022-08-17T10:29:28.965Z,99464.38
2022-08-17T10:32:00.509Z,99469.50
2022-08-17T10:34:45.136Z,99465.03
2022-08-17T10:37:33.938Z,99463.69
2022-08-17T10:40:11.799Z,99468.59
2022-08-17T10:42:48.833Z,99471.44
2022-08-17T10:45:19.496Z,99466.34
2022-08-17T10:48:04.727Z,99468.09
2022-08-17T10:50:58.523Z,99465.94
2022-08-17T10:53:55.194Z,99461.75
2022-08-17T10:56:25.834Z,99456.56
2022-08-17T10:58:57.094Z,99455.09
2022-08-17T11:02:05.696Z,99460.19
2022-08-17T11:04:47.706Z,99455.47
2022-08-17T11:07:20.734Z,99454.59
2022-08-17T11:10:02.786Z,99452.75
2022-08-17T11:12:37.878Z,99444.81
2022-08-17T11:15:19.535Z,99450.28
2022-08-17T11:18:08.633Z,99457.28
2022-08-17T11:20:58.247Z,99451.59
2022-08-17T11:23:50.211Z,99458.84
2022-08-17T11:26:26.093Z,99459.16
2022-08-17T11:28:58.714Z,99464.88
2022-08-17T11:31:38.806Z,99464.06
2022-08-17T11:34:14.577Z,99463.84
2022-08-17T11:37:20.822Z,99472.25
2022-08-17T11:40:07.491Z,99479.69
2022-08-17T11:42:47.247Z,99461.38
2022-08-17T11:45:34.021Z,99456.94
2022-08-17T11:48:28.342Z,99462.75
2022-08-17T11:51:31.799Z,99458.84
2022-08-17T11:54:31.029Z,99467.34
2022-08-17T11:56:52.787Z,99460.56
2022-08-17T11:59:58.592Z,99471.38
2022-08-17T12:02:47.426Z,99470.53
2022-08-17T12:05:30.554Z,99478.59
2022-08-17T12:08:07.119Z,99478.75
2022-08-17T12:10:37.083Z,99472.69
2022-08-17T12:13:08.006Z,99477.22
2022-08-17T12:15:38.553Z,99473.69
2022-08-17T12:18:06.337Z,99483.94
2022-08-17T12:20:37.985Z,99476.97
2022-08-17T12:23:11.023Z,99473.41
2022-08-17T12:25:43.153Z,99472.94
2022-08-17T12:28:21.692Z,99479.69
2022-08-17T12:30:51.941Z,99474.41
2022-08-17T12:33:27.826Z,99477.31
2022-08-17T12:35:59.915Z,99473.00
2022-08-17T12:38:33.025Z,99478.00
2022-08-17T12:41:22.231Z,99468.28
2022-08-17T12:43:56.604Z,99475.59
2022-08-17T12:46:24.118Z,99471.69
2022-08-17T12:48:58.941Z,99469.34
2022-08-17T12:51:29.888Z,99468.34
2022-08-17T12:53:57.479Z,99479.75
2022-08-17T12:56:25.010Z,99470.88
2022-08-17T12:58:55.446Z,99467.47
2022-08-17T13:01:24.916Z,99469.09
2022-08-17T13:03:59.530Z,99462.91
2022-08-17T13:06:30.146Z,99461.59
2022-08-17T13:08:57.806Z,99460.28
2022-08-17T13:11:26.243Z,99469.91
2022-08-17T13:13:56.066Z,99471.47
2022-08-17T13:16:26.433Z,99465.09
2022-08-17T13:18:58.327Z,99462.91
2022-08-17T13:21:28.545Z,99465.56
2022-08-17T13:24:00.802Z,99469.63
2022-08-17T13:26:32.712Z,99467.88
2022-08-17T13:29:01.066Z,99463.25
2022-08-17T13:31:39.443Z,99472.81
2022-08-17T13:34:34.181Z,99473.44
2022-08-17T13:37:26.432Z,99469.28
2022-08-17T13:39:57.451Z,99460.72
2022-08-17T13:42:50.242Z,99467.31
2022-08-17T13:45:38.952Z,99457.53
2022-08-17T13:48:13.761Z,99463.91
2022-08-17T13:50:44.977Z,99455.88
2022-08-17T13:53:20.947Z,99448.34
2022-08-17T13:55:51.806Z,99454.38
2022-08-17T13:58:24.157Z,99453.91
2022-08-17T14:00:52.676Z,99453.38
2022-08-17T14:03:21.175Z,99451.78
2022-08-17T14:05:50.026Z,99446.94
2022-08-17T14:08:19.289Z,99445.31
2022-08-17T14:10:57.695Z,99429.50
2022-08-17T14:13:25.319Z,99429.09
2022-08-17T14:15:55.985Z,99438.06
2022-08-17T14:18:42.052Z,99435.75
2022-08-17T14:21:12.304Z,99430.78
2022-08-17T14:23:40.790Z,99419.22
2022-08-17T14:26:12.434Z,99427.06
2022-08-17T14:28:54.420Z,99423.09
2022-08-17T14:31:22.490Z,99428.78
2022-08-17T14:33:49.970Z,99424.09
2022-08-17T14:36:17.520Z,99428.00
2022-08-17T14:38:45.289Z,99432.28
2022-08-17T14:41:18.734Z,99429.13
2022-08-17T14:43:49.437Z,99423.00
2022-08-17T14:46:16.935Z,99431.75
2022-08-17T14:48:44.448Z,99428.31
2022-08-17T14:51:11.961Z,99440.22
2022-08-17T14:53:39.479Z,99433.81
2022-08-17T14:56:07.790Z,99437.16
2022-08-17T14:58:36.654Z,99426.81
2022-08-17T15:01:07.619Z,99428.47
2022-08-17T15:03:39.923Z,99419.88
2022-08-17T15:06:09.059Z,99425.22
2022-08-17T15:08:37.118Z,99421.72
2022-08-17T15:11:05.062Z,99432.00
2022-08-17T15:13:32.584Z,99425.06
2022-08-17T15:16:02.362Z,99422.81
2022-08-17T15:18:30.413Z,99418.63
2022-08-17T15:20:58.143Z,99422.50
2022-08-17T15:23:27.410Z,99424.91
2022-08-17T15:25:55.893Z,99421.44
2022-08-17T15:28:23.702Z,99417.00
2022-08-17T15:30:51.390Z,99412.75
2022-08-17T15:33:23.733Z,99405.66
2022-08-17T15:35:52.149Z,99401.97
2022-08-17T15:38:20.079Z,99405.81
2022-08-17T15:40:49.822Z,99399.38
2022-08-17T15:43:27.107Z,99408.56
2022-08-17T15:46:00.460Z,99401.13
2022-08-17T15:48:41.202Z,99397.06
2022-08-17T15:51:10.526Z,99386.91
2022-08-17T15:53:38.926Z,99390.94
2022-08-17T15:56:06.831Z,99396.16
2022-08-17T15:58:34.842Z,99382.25
2022-08-17T16:01:16.481Z,99376.06
2022-08-17T16:04:04.821Z,99374.19
2022-08-17T16:06:35.427Z,99387.28
2022-08-17T16:09:02.915Z,99366.97
2022-08-17T16:11:30.421Z,99373.66
2022-08-17T16:13:57.883Z,99370.41
2022-08-17T16:16:26.009Z,99365.56
2022-08-17T16:18:59.176Z,99377.00
2022-08-17T16:21:27.411Z,99369.53
2022-08-17T16:23:57.989Z,99369.16
2022-08-17T16:26:26.150Z,99366.97
2022-08-17T16:28:54.274Z,99365.41
2022-08-17T16:31:22.026Z,99360.97
2022-08-17T16:34:08.998Z,99366.13
2022-08-17T16:36:39.982Z,99357.00
2022-08-17T16:39:07.494Z,99370.41
2022-08-17T16:41:44.961Z,99352.88
2022-08-17T16:44:15.446Z,99356.09
2022-08-17T16:46:45.773Z,99359.75
2022-08-17T16:49:35.297Z,99358.84
2022-08-17T16:52:03.965Z,99359.75
2022-08-17T16:54:31.543Z,99369.56
2022-08-17T16:56:59.113Z,99368.13
2022-08-17T16:59:30.796Z,99375.63
2022-08-17T17:02:10.771Z,99380.97
2022-08-17T17:04:43.281Z,99382.72
2022-08-17T17:07:24.313Z,99387.56
2022-08-17T17:09:55.278Z,99391.44
2022-08-17T17:12:59.442Z,99389.88
2022-08-17T17:15:11.905Z,99386.94
2022-08-17T17:17:40.491Z,99386.75
2022-08-17T17:20:11.535Z,99400.75
2022-08-17T17:22:47.182Z,99404.00
2022-08-17T17:25:20.642Z,99402.53
2022-08-17T17:27:51.546Z,99398.28
2022-08-17T17:30:24.030Z,99400.84
2022-08-17T17:32:54.014Z,99393.50
2022-08-17T17:35:26.478Z,99402.75
2022-08-17T17:37:58.063Z,99396.03
2022-08-17T17:40:30.230Z,99403.44
2022-08-17T17:43:14.244Z,99398.78
2022-08-17T17:45:52.030Z,99402.97
2022-08-17T17:48:19.594Z,99409.25
2022-08-17T17:50:54.450Z,99405.06
2022-08-17T17:53:41.714Z,99409.22
2022-08-17T17:56:19.615Z,99407.66
2022-08-17T17:59:12.709Z,99410.19
2022-08-17T18:01:47.593Z,99411.84
2022-08-17T18:04:21.980Z,99412.41
2022-08-17T18:06:59.240Z,99415.22
2022-08-17T18:09:36.837Z,99418.44
2022-08-17T18:12:19.642Z,99415.72
2022-08-17T18:14:58.436Z,99420.72
2022-08-17T18:17:26.402Z,99413.53
2022-08-17T18:19:55.244Z,99425.25
2022-08-17T18:22:24.137Z,99424.31
2022-08-17T18:24:55.959Z,99431.44
2022-08-17T18:27:26.569Z,99433.31
2022-08-17T18:29:55.905Z,99436.72
2022-08-17T18:32:38.283Z,99447.88
2022-08-17T18:35:28.878Z,99437.03
2022-08-17T18:37:58.299Z,99446.84
2022-08-17T18:40:37.408Z,99452.72
2022-08-17T18:43:11.593Z,99446.00
2022-08-17T18:45:42.975Z,99441.69
2022-08-17T18:48:33.027Z,99454.13
2022-08-17T18:51:02.772Z,99460.94
2022-08-17T18:53:38.993Z,99474.31
2022-08-17T18:56:26.248Z,99474.81
2022-08-17T18:59:04.760Z,99490.31
2022-08-17T19:01:52.469Z,99489.78
2022-08-17T19:04:38.058Z,99481.94
2022-08-17T19:07:13.573Z,99481.09
2022-08-17T19:09:45.019Z,99481.63
2022-08-17T19:12:27.309Z,99482.41
2022-08-17T19:14:56.641Z,99478.38
2022-08-17T19:17:28.222Z,99491.97
2022-08-17T19:20:00.965Z,99487.06
2022-08-17T19:22:31.267Z,99498.22
2022-08-17T19:25:08.495Z,99502.81
2022-08-17T19:27:46.312Z,99504.44
2022-08-17T19:30:16.732Z,99516.13
2022-08-17T19:32:44.415Z,99507.16
2022-08-17T19:35:17.378Z,99496.81
2022-08-17T19:37:57.255Z,99504.41
2022-08-17T19:40:51.710Z,99508.16
2022-08-17T19:43:24.797Z,99495.69
2022-08-17T19:46:01.592Z,99502.22
2022-08-17T19:48:40.729Z,99501.38
2022-08-17T19:51:12.710Z,99495.66
2022-08-17T19:54:04.350Z,99500.81
2022-08-17T19:56:37.169Z,99503.50
2022-08-17T19:59:12.877Z,99500.50
2022-08-17T20:01:45.759Z,99510.00
2022-08-17T20:04:17.745Z,99511.00
2022-08-17T20:06:49.175Z,99517.25
2022-08-17T20:09:21.505Z,99522.56
2022-08-17T20:11:52.112Z,99530.41
2022-08-17T20:14:23.054Z,99538.44
2022-08-17T20:16:50.991Z,99537.88
2022-08-17T20:19:23.825Z,99544.31
2022-08-17T20:21:55.263Z,99549.78
2022-08-17T20:24:27.174Z,99547.03
2022-08-17T20:26:58.416Z,99550.19
2022-08-17T20:29:40.340Z,99547.53
2022-08-17T20:32:16.370Z,99539.94
2022-08-17T20:34:46.614Z,99553.53
2022-08-17T20:37:28.033Z,99543.81
2022-08-17T20:40:23.546Z,99549.59
2022-08-17T20:42:51.049Z,99551.44
2022-08-17T20:46:06.166Z,99548.34
2022-08-17T20:48:39.140Z,99540.22
2022-08-17T20:51:19.420Z,99540.84
2022-08-17T20:54:34.190Z,99550.19
2022-08-17T20:57:02.469Z,99556.50
2022-08-17T21:00:04.132Z,99567.19
2022-08-17T21:02:32.252Z,99565.50
2022-08-17T21:05:08.283Z,99568.19
2022-08-17T21:07:55.539Z,99566.31
2022-08-17T21:10:35.413Z,99575.97
2022-08-17T21:13:28.189Z,99571.28
2022-08-17T21:15:59.850Z,99571.66
2022-08-17T21:18:33.197Z,99572.63
2022-08-17T21:21:17.607Z,99576.38
2022-08-17T21:24:11.874Z,99576.94
2022-08-17T21:26:51.128Z,99568.88
2022-08-17T21:29:30.925Z,99581.25
2022-08-17T21:32:19.196Z,99574.28
2022-08-17T21:35:23.204Z,99571.59
2022-08-17T21:37:58.403Z,99584.84
2022-08-17T21:40:28.886Z,99589.91
2022-08-17T21:42:59.013Z,99582.00
2022-08-17T21:45:28.846Z,99586.97
2022-08-17T21:48:14.029Z,99601.28
2022-08-17T21:50:44.111Z,99598.31
2022-08-17T21:53:17.963Z,99595.31
2022-08-17T21:55:50.267Z,99594.25
2022-08-17T21:58:28.750Z,99593.22
2022-08-17T22:01:22.050Z,99592.38
2022-08-17T22:03:56.775Z,99599.28
2022-08-17T22:06:27.738Z,99601.81
2022-08-17T22:09:02.229Z,99603.16
2022-08-17T22:11:29.806Z,99602.78
2022-08-17T22:14:05.348Z,99614.91
2022-08-17T22:16:33.639Z,99608.06
2022-08-17T22:19:01.237Z,99621.19
2022-08-17T22:21:28.911Z,99623.22
2022-08-17T22:24:05.321Z,99619.72
2022-08-17T22:27:00.054Z,99626.75
2022-08-17T22:29:57.457Z,99627.28
2022-08-17T22:32:34.339Z,99635.41
2022-08-17T22:35:34.377Z,99642.28
2022-08-17T22:38:32.526Z,99641.94
2022-08-17T22:41:27.527Z,99651.44
2022-08-17T22:43:57.312Z,99644.28
2022-08-17T22:46:25.487Z,99654.63
2022-08-17T22:48:56.666Z,99654.22
2022-08-17T22:51:27.071Z,99652.19
2022-08-17T22:54:15.305Z,99654.06
2022-08-17T22:57:08.370Z,99645.56
2022-08-17T22:59:43.511Z,99642.72
2022-08-17T23:02:19.467Z,99643.31
2022-08-17T23:04:51.086Z,99638.91
2022-08-17T23:07:19.850Z,99640.47
2022-08-17T23:09:47.525Z,99641.63
2022-08-17T23:12:19.697Z,99632.69
2022-08-17T23:14:51.181Z,99634.06
2022-08-17T23:17:18.721Z,99628.91
2022-08-17T23:19:46.290Z,99630.16
2022-08-17T23:22:13.802Z,99641.84
2022-08-17T23:24:48.878Z,99637.34
2022-08-17T23:27:18.358Z,99636.09
2022-08-17T23:29:47.030Z,99639.22
2022-08-17T23:32:16.693Z,99638.94
2022-08-17T23:34:48.071Z,99636.00
2022-08-17T23:37:16.696Z,99643.59
2022-08-17T23:39:45.406Z,99640.09
2022-08-17T23:42:16.737Z,99640.34
2022-08-17T23:44:45.595Z,99635.97
2022-08-17T23:47:13.183Z,99634.59
2022-08-17T23:49:41.263Z,99637.38
2022-08-17T23:52:12.485Z,99641.88
2022-08-17T23:54:44.674Z,99643.16
2022-08-17T23:57:13.845Z,99631.13
2022-08-17T23:59:43.733Z,99640.72
